OIZJ 
Jask Airport
Jask, Iran 
ICAOStatus
OIZJOperational
LatitudeLongitude
25° 39' 12" N57° 47' 57" E
25.65360157.799301
Local Time (DST+5)UTC (GMT+4)
04-23-2014 08:07 pm04-23-2014 15:37
Sunrise-SunsetLocalUTC
Begin Civil Twilight05:43 am01:13
Sunrise06:07 am01:37
Sunset07:06 pm14:36
End Civil Twilight07:30 pm15:00

Current Weather

METARObservedFlight Conditions

OIZJ 231500Z 16006KT 5000 BR NSC 27/25 Q1010

Wed, Apr 23, 2014 @ 15:00 UTC(Z)

(37 Minutes ago)

MVFR

(Marginal Visual Flight Rules)

WindVisibilityCloudsConditions
160° at 6 knots (11 kph)
5000 meters
  • Clear skies
  • Mist
TemperaturesReadingsPrecipitation
Current Temp27°C (81°F)
Dewpoint25°C (77°F)
Heat Index31°C (88°F)
Humidity89%
Altimeter29.82"Hg
Sea Level Pressure1010mb
Field Elevation13.12'
None Recorded

Additional weather within a 185.2km radius of OIZJ

Location METAR
OMFJ

159.8km W (248°)

1 hour, 37 minutes ago
VFR VFR    MVFR MVFR    IFR IFR    LIFR LIFR    Unknown Unknown

Previous 24 hour Weather Graphs

  Loading...

CheckWX.com is intended as a tool to help pilots better visualize weather data.   It is not intended as a substitute for an official weather briefing obtained from a Flight Service Station.
CheckWX.com does not meet the FAA requirements for an official pre-flight weather briefing.   Therefore, it's important that pilots still call and obtain an official FSS pre-flight weather briefing.